Alice International Airport
KALI : now visible

Airfield :











YOU CAN JOIN US ON...

 
LOGIN :

Register | Disclaimer

   EN    FR    IT 

 









Legend :    VFR   Marginal VFR   IFR   Intensive IFR   Very Intensive IFR
Visi :
Ceiling :
>= 8 km
>= 3000ft
5 to 8 km
1000 to 3000 ft
1500m to 5 km
500 to 1000 ft
800 to 1500m
200 to 500 ft
< 800m
< 200 ft
Symbols :   Thunderstorms  Fog  Heavy snow  Heavy precipitations  Wind > 20 kt







- Airport Elevation : 178 ft


KALI - Alice International

CURRENT METAR :
  • 171153Z AUTO 13005KT 5SM BR SCT012 BKN018 26/24 A2998 RMK AO2 SLP149 T02560244 10278 20256 51005

EXPIRED METARs :
  • 171136Z AUTO 12004KT 7SM BKN014 BKN020 26/24 A2998 RMK AO2 T02610244
  • 171053Z AUTO 13003KT 8SM FEW014 26/24 A2997 RMK AO2 SLP145 T02610244
  • 171001Z AUTO 14005KT 10SM FEW014 SCT020 27/25 A2996 RMK AO2 T02670250
  • 170953Z AUTO 15005KT 10SM SCT015 BKN020 27/25 A2997 RMK AO2 SLP143 T02670250

TAF KALI
Valid from the 17 at 12:00 until the 18 at 12:00 UTC


171132Z 1712/1812 13003KT P6SM SCT015
TEMPO 1712/1713 BKN015
FM171500 16014G18KT P6SM SCT030
FM172200 14019G25KT P6SM SCT050
FM180300 15010KT P6SM SCT250
FM180900 16005KT P6SM SCT025 BKN250
TEMPO 1810/1812 BKN025
KZHU FIR / North America



MET'MAP, your aeronautical weather chart ! - Copyright ORBIFLY December 2007 - Disclaimer

ORBIFLY MET'MAP TEAM :

Programming & Development : Alexandra Zaïnal
Concept & Development : Baudouin d'Aumeries
Co-Development & Prog : Marc-Olivier Méhu
Technical & hardware support : Manuel Goepfert

Contact : metmap@orbifly.com




SOURCES & CREDITS :

   NOAA       Earth
Advisory